ハボローネ の空港の天気 - METARとTAF

セレツェカーマ国際空港 ( FBSK / GBE ) - ボツワナ ハボローネ
飛行場実況気象(Metar)
観測時間08/14 00:00 CAT (08/13 22:00 UTC)
風向・風速西南西 2m/s
視程10km以上
天気現象
なし
気温12℃
湿度35%
気圧1013hPa
METARFBSK 132200Z 24004KT CAVOK 12/M03 Q1013 NOSIG
過去の天気等 Google飛行場航空写真 Wunderground天気予報

過去48時間のMETAR

飛行場予報(TAF)
発表時間: 8/13 18:00 CAT (8/13 16:00 UTC)
予報対象時間: 13日20時 CAT ~ 15日2時 CAT
風向・風速西 4m/s
視程10km以上
なし
TAF FBSK 131600Z 1318/1424 28007KT CAVOK